createdAt,value
2023-01-23T00:01:15.602Z,99001.81
2023-01-23T00:03:44.214Z,98993.97
2023-01-23T00:06:16.300Z,98995.78
2023-01-23T00:08:46.315Z,99002.84
2023-01-23T00:11:19.185Z,99002.69
2023-01-23T00:13:45.752Z,98998.84
2023-01-23T00:16:15.473Z,98997.59
2023-01-23T00:18:45.609Z,99003.59
2023-01-23T00:21:17.327Z,98996.84
2023-01-23T00:23:46.217Z,98993.88
2023-01-23T00:26:18.654Z,99005.41
2023-01-23T00:28:46.285Z,99016.00
2023-01-23T00:31:27.666Z,99010.41
2023-01-23T00:33:57.139Z,98998.44
2023-01-23T00:36:24.801Z,98979.47
2023-01-23T00:38:51.226Z,98989.47
2023-01-23T00:41:17.757Z,98982.13
2023-01-23T00:43:50.306Z,98995.69
2023-01-23T00:46:16.787Z,98976.47
2023-01-23T00:48:45.938Z,98982.22
2023-01-23T00:51:12.705Z,98983.59
2023-01-23T00:53:39.245Z,98986.59
2023-01-23T00:56:06.303Z,98990.34
2023-01-23T00:58:33.096Z,98981.53
2023-01-23T01:00:59.564Z,98983.13
2023-01-23T01:03:26.116Z,98984.91
2023-01-23T01:05:53.037Z,98987.28
2023-01-23T01:08:19.538Z,98991.19
2023-01-23T01:10:49.060Z,98980.00
2023-01-23T01:13:19.589Z,98971.72
2023-01-23T01:15:52.956Z,98994.25
2023-01-23T01:18:21.179Z,98984.91
2023-01-23T01:20:48.376Z,98974.84
2023-01-23T01:23:14.933Z,98983.53
2023-01-23T01:25:41.475Z,98986.13
2023-01-23T01:28:08.308Z,98982.00
2023-01-23T01:30:36.790Z,98971.50
2023-01-23T01:33:03.935Z,98992.03
2023-01-23T01:35:30.402Z,98979.72
2023-01-23T01:37:56.985Z,98984.75
2023-01-23T01:40:26.920Z,98979.72
2023-01-23T01:43:05.383Z,98989.06
2023-01-23T01:46:11.469Z,98986.06
2023-01-23T01:48:48.271Z,98990.28
2023-01-23T01:51:33.488Z,98988.53
2023-01-23T01:54:09.720Z,98985.75
2023-01-23T01:56:41.448Z,98991.25
2023-01-23T01:59:09.916Z,98979.88
2023-01-23T02:01:37.609Z,98982.16
2023-01-23T02:04:04.632Z,98974.88
2023-01-23T02:06:31.330Z,98989.97
2023-01-23T02:09:09.343Z,98984.00
2023-01-23T02:11:36.753Z,98975.41
2023-01-23T02:14:03.236Z,98978.78
2023-01-23T02:16:40.136Z,98980.16
2023-01-23T02:19:26.923Z,98986.63
2023-01-23T02:22:04.220Z,98987.66
2023-01-23T02:24:39.356Z,98983.69
2023-01-23T02:27:05.831Z,98986.00
2023-01-23T02:29:44.115Z,98991.50
2023-01-23T02:32:10.890Z,98993.47
2023-01-23T02:34:37.509Z,98988.91
2023-01-23T02:37:05.203Z,98995.69
2023-01-23T02:39:34.387Z,98989.75
2023-01-23T02:42:01.595Z,98986.81
2023-01-23T02:44:34.304Z,98991.03
2023-01-23T02:47:07.950Z,98991.19
2023-01-23T02:49:34.591Z,98983.84
2023-01-23T02:52:01.036Z,98976.03
2023-01-23T02:54:27.593Z,98985.66
2023-01-23T02:56:54.023Z,98976.38
2023-01-23T02:59:39.123Z,98985.22
2023-01-23T03:02:06.259Z,98973.09
2023-01-23T03:04:32.880Z,98971.66
2023-01-23T03:06:59.469Z,98963.00
2023-01-23T03:09:26.275Z,98956.03
2023-01-23T03:11:55.832Z,98961.94
2023-01-23T03:14:25.725Z,98973.31
2023-01-23T03:16:56.727Z,98949.00
2023-01-23T03:19:26.597Z,98972.81
2023-01-23T03:21:54.974Z,98973.88
2023-01-23T03:24:24.652Z,98968.38
2023-01-23T03:26:52.770Z,98962.47
2023-01-23T03:29:42.084Z,98964.47
2023-01-23T03:32:09.999Z,98969.28
2023-01-23T03:34:36.559Z,98964.81
2023-01-23T03:37:03.427Z,98962.59
2023-01-23T03:39:48.415Z,98963.75
2023-01-23T03:42:14.995Z,98946.84
2023-01-23T03:44:41.782Z,98946.47
2023-01-23T03:47:08.328Z,98955.41
2023-01-23T03:49:34.777Z,98939.44
2023-01-23T03:52:01.941Z,98955.25
2023-01-23T03:54:28.416Z,98951.06
2023-01-23T03:56:57.686Z,98949.81
2023-01-23T03:59:26.117Z,98943.06
2023-01-23T04:01:52.589Z,98941.22
2023-01-23T04:04:19.100Z,98946.44
2023-01-23T04:06:45.585Z,98940.69
2023-01-23T04:09:12.953Z,98944.66
2023-01-23T04:11:39.384Z,98942.59
2023-01-23T04:14:05.862Z,98954.53
2023-01-23T04:16:32.380Z,98946.00
2023-01-23T04:18:58.850Z,98950.88
2023-01-23T04:21:26.664Z,98954.25
2023-01-23T04:23:53.127Z,98955.94
2023-01-23T04:26:19.704Z,98961.47
2023-01-23T04:28:46.156Z,98960.16
2023-01-23T04:31:12.703Z,98959.78
2023-01-23T04:33:39.239Z,98941.94
2023-01-23T04:36:06.776Z,98955.47
2023-01-23T04:38:33.914Z,98963.06
2023-01-23T04:41:00.613Z,98956.03
2023-01-23T04:43:30.672Z,98943.25
2023-01-23T04:45:58.913Z,98935.88
2023-01-23T04:48:25.782Z,98938.63
2023-01-23T04:50:52.393Z,98927.38
2023-01-23T04:53:19.303Z,98936.00
2023-01-23T04:55:49.750Z,98936.69
2023-01-23T04:58:18.176Z,98939.28
2023-01-23T05:00:44.912Z,98941.00
2023-01-23T05:03:11.488Z,98935.94
2023-01-23T05:05:38.028Z,98930.72
2023-01-23T05:08:04.793Z,98923.16
2023-01-23T05:10:31.347Z,98924.16
2023-01-23T05:12:59.914Z,98923.16
2023-01-23T05:15:26.415Z,98934.50
2023-01-23T05:17:52.898Z,98925.84
2023-01-23T05:20:20.600Z,98914.75
2023-01-23T05:22:53.196Z,98931.41
2023-01-23T05:25:22.194Z,98925.34
2023-01-23T05:27:48.673Z,98928.88
2023-01-23T05:30:15.611Z,98932.09
2023-01-23T05:32:42.304Z,98939.69
2023-01-23T05:35:10.772Z,98935.78
2023-01-23T05:37:37.669Z,98930.66
2023-01-23T05:40:06.888Z,98923.41
2023-01-23T05:42:33.340Z,98929.81
2023-01-23T05:45:02.131Z,98919.06
2023-01-23T05:47:28.961Z,98915.03
2023-01-23T05:49:55.425Z,98924.22
2023-01-23T05:52:22.235Z,98917.81
2023-01-23T05:54:48.746Z,98902.59
2023-01-23T05:57:15.283Z,98909.81
2023-01-23T05:59:41.771Z,98915.63
2023-01-23T06:02:08.381Z,98920.75
2023-01-23T06:04:34.821Z,98919.22
2023-01-23T06:07:04.423Z,98923.53
2023-01-23T06:09:33.527Z,98916.41
2023-01-23T06:12:02.384Z,98897.31
2023-01-23T06:14:28.973Z,98905.38
2023-01-23T06:16:55.455Z,98906.28
2023-01-23T06:19:21.950Z,98902.41
2023-01-23T06:21:48.372Z,98909.03
2023-01-23T06:24:14.970Z,98920.50
2023-01-23T06:26:41.442Z,98909.91
2023-01-23T06:29:07.949Z,98915.28
2023-01-23T06:31:34.534Z,98912.78
2023-01-23T06:34:04.755Z,98916.41
2023-01-23T06:36:34.473Z,98912.16
2023-01-23T06:39:03.766Z,98917.47
2023-01-23T06:41:30.203Z,98921.50
2023-01-23T06:43:56.771Z,98930.09
2023-01-23T06:46:23.732Z,98932.78
2023-01-23T06:48:54.012Z,98906.88
2023-01-23T06:51:20.477Z,98923.88
2023-01-23T06:53:46.965Z,98922.84
2023-01-23T06:56:13.646Z,98910.41
2023-01-23T06:58:44.451Z,98930.34
2023-01-23T07:01:13.343Z,98938.16
2023-01-23T07:03:40.433Z,98931.69
2023-01-23T07:06:07.332Z,98942.44
2023-01-23T07:08:34.828Z,98944.13
2023-01-23T07:11:05.095Z,98936.28
2023-01-23T07:13:35.039Z,98932.16
2023-01-23T07:16:05.025Z,98929.25
2023-01-23T07:18:34.753Z,98929.84
2023-01-23T07:21:04.419Z,98931.69
2023-01-23T07:23:34.610Z,98937.81
2023-01-23T07:26:09.476Z,98933.78
2023-01-23T07:28:42.394Z,98935.06
2023-01-23T07:31:08.924Z,98922.88
2023-01-23T07:33:35.421Z,98927.63
2023-01-23T07:36:05.797Z,98920.16
2023-01-23T07:38:35.216Z,98935.16
2023-01-23T07:41:04.379Z,98929.53
2023-01-23T07:43:32.571Z,98918.00
2023-01-23T07:46:09.552Z,98918.69
2023-01-23T07:48:37.144Z,98928.59
2023-01-23T07:51:04.023Z,98917.38
2023-01-23T07:53:34.006Z,98925.13
2023-01-23T07:56:04.522Z,98928.88
2023-01-23T07:58:34.375Z,98930.63
2023-01-23T08:01:08.117Z,98905.00
2023-01-23T08:03:34.688Z,98940.38
2023-01-23T08:06:06.544Z,98932.94
2023-01-23T08:08:39.449Z,98916.97
2023-01-23T08:11:10.310Z,98916.97
2023-01-23T08:13:36.838Z,98945.09
2023-01-23T08:16:04.185Z,98946.44
2023-01-23T08:18:34.372Z,98928.59
2023-01-23T08:21:04.001Z,98933.78
2023-01-23T08:23:32.860Z,98944.22
2023-01-23T08:26:03.076Z,98941.59
2023-01-23T08:28:29.976Z,98927.13
2023-01-23T08:31:06.654Z,98939.06
2023-01-23T08:33:34.294Z,98941.13
2023-01-23T08:36:06.756Z,98940.03
2023-01-23T08:38:33.280Z,98927.06
2023-01-23T08:41:05.128Z,98935.34
2023-01-23T08:43:34.919Z,98938.34
2023-01-23T08:46:05.101Z,98923.47
2023-01-23T08:48:35.483Z,98945.88
2023-01-23T08:51:08.917Z,98952.72
2023-01-23T08:53:36.168Z,98938.28
2023-01-23T08:56:23.339Z,98941.13
2023-01-23T08:58:50.852Z,98933.63
2023-01-23T09:01:19.767Z,98944.41
2023-01-23T09:03:46.852Z,98930.50
2023-01-23T09:06:15.157Z,98909.91
2023-01-23T09:08:42.068Z,98942.25
2023-01-23T09:11:10.085Z,98948.19
2023-01-23T09:13:37.051Z,98961.69
2023-01-23T09:16:05.166Z,98951.84
2023-01-23T09:18:35.083Z,98959.75
2023-01-23T09:21:10.178Z,98958.84
2023-01-23T09:23:36.986Z,98962.44
2023-01-23T09:26:05.334Z,98953.75
2023-01-23T09:28:35.423Z,98952.84
2023-01-23T09:31:04.121Z,98936.38
2023-01-23T09:33:31.448Z,98952.78
2023-01-23T09:35:59.247Z,98922.25
2023-01-23T09:38:27.049Z,98920.38
2023-01-23T09:40:56.379Z,98945.38
2023-01-23T09:43:39.923Z,98934.25
2023-01-23T09:46:17.903Z,98952.63
2023-01-23T09:48:53.863Z,98943.09
2023-01-23T09:51:20.293Z,98955.66
2023-01-23T09:53:47.030Z,98953.97
2023-01-23T09:56:14.566Z,98954.13
2023-01-23T09:58:47.532Z,98959.63
2023-01-23T10:01:14.149Z,98940.94
2023-01-23T10:03:41.290Z,98939.06
2023-01-23T10:06:23.189Z,98933.38
2023-01-23T10:09:04.944Z,98961.38
2023-01-23T10:11:47.416Z,98959.13
2023-01-23T10:14:36.620Z,98927.81
2023-01-23T10:17:27.344Z,98943.69
2023-01-23T10:20:32.579Z,98954.13
2023-01-23T10:23:05.215Z,98939.44
2023-01-23T10:25:38.542Z,98937.06
2023-01-23T10:28:37.989Z,98939.94
2023-01-23T10:31:38.456Z,98930.22
2023-01-23T10:34:13.960Z,98932.59
2023-01-23T10:37:09.570Z,98927.13
2023-01-23T10:39:48.677Z,98918.22
2023-01-23T10:42:20.973Z,98903.66
2023-01-23T10:44:48.948Z,98899.88
2023-01-23T10:47:37.071Z,98897.66
2023-01-23T10:50:06.070Z,98900.66
2023-01-23T10:52:44.859Z,98883.41
2023-01-23T10:55:20.548Z,98890.41
2023-01-23T10:57:49.645Z,98874.97
2023-01-23T11:00:25.495Z,98886.56
2023-01-23T11:02:52.338Z,98868.81
2023-01-23T11:05:53.681Z,98870.59
2023-01-23T11:08:47.894Z,98869.59
2023-01-23T11:11:14.714Z,98876.66
2023-01-23T11:13:45.861Z,98869.06
2023-01-23T11:16:22.320Z,98863.44
2023-01-23T11:19:05.256Z,98841.25
2023-01-23T11:21:37.403Z,98823.59
2023-01-23T11:24:40.772Z,98853.00
2023-01-23T11:27:32.264Z,98849.22
2023-01-23T11:30:27.377Z,98842.22
2023-01-23T11:33:02.459Z,98838.09
2023-01-23T11:36:08.213Z,98843.22
2023-01-23T11:38:52.505Z,98816.75
2023-01-23T11:41:27.066Z,98806.56
2023-01-23T11:43:54.164Z,98825.03
2023-01-23T11:47:02.793Z,98832.88
2023-01-23T11:49:51.355Z,98821.53
2023-01-23T11:52:47.389Z,98821.97
2023-01-23T11:55:45.927Z,98826.91
2023-01-23T11:58:15.453Z,98818.13
2023-01-23T12:00:46.823Z,98826.25
2023-01-23T12:03:51.083Z,98801.81
2023-01-23T12:06:46.766Z,98808.63
2023-01-23T12:09:20.269Z,98792.94
2023-01-23T12:12:20.984Z,98799.41
2023-01-23T12:15:03.516Z,98783.00
2023-01-23T12:17:40.946Z,98781.19
2023-01-23T12:20:32.585Z,98791.38
2023-01-23T12:23:15.042Z,98788.38
2023-01-23T12:25:48.505Z,98792.94
2023-01-23T12:28:37.671Z,98795.28
2023-01-23T12:31:09.961Z,98786.06
2023-01-23T12:33:50.552Z,98777.91
2023-01-23T12:37:14.225Z,98784.38
2023-01-23T12:40:15.764Z,98794.81
2023-01-23T12:43:10.020Z,98784.63
2023-01-23T12:45:43.109Z,98774.31
2023-01-23T12:48:34.876Z,98780.84
2023-01-23T12:51:08.755Z,98796.13
2023-01-23T12:53:40.938Z,98756.09
2023-01-23T12:56:16.455Z,98787.91
2023-01-23T12:58:53.430Z,98780.91
2023-01-23T13:01:51.039Z,98769.34
2023-01-23T13:04:46.767Z,98781.28
2023-01-23T13:07:26.798Z,98786.31
2023-01-23T13:09:55.982Z,98783.13
2023-01-23T13:12:25.561Z,98784.56
2023-01-23T13:15:13.329Z,98789.59
2023-01-23T13:17:50.849Z,98787.63
2023-01-23T13:20:40.724Z,98793.88
2023-01-23T13:23:33.331Z,98794.78
2023-01-23T13:26:15.160Z,98786.00
2023-01-23T13:28:46.259Z,98783.09
2023-01-23T13:31:38.364Z,98780.00
2023-01-23T13:34:17.037Z,98780.97
2023-01-23T13:36:51.444Z,98776.41
2023-01-23T13:39:21.251Z,98782.38
2023-01-23T13:42:07.641Z,98771.88
2023-01-23T13:44:42.057Z,98782.19
2023-01-23T14:22:40.511Z,98778.66
2023-01-23T14:27:52.857Z,98794.13
2023-01-23T14:30:32.320Z,98791.88
2023-01-23T14:33:01.691Z,98781.41
2023-01-23T14:35:29.902Z,98806.78
2023-01-23T14:38:01.990Z,98791.59
2023-01-23T14:40:35.170Z,98768.41
2023-01-23T14:43:07.888Z,98792.59
2023-01-23T14:45:38.777Z,98781.88
2023-01-23T14:48:13.689Z,98791.13
2023-01-23T14:50:40.284Z,98775.78
2023-01-23T14:53:16.831Z,98784.97
2023-01-23T14:55:48.359Z,98761.09
2023-01-23T14:58:22.429Z,98776.59
2023-01-23T15:00:50.381Z,98768.19
2023-01-23T15:03:41.143Z,98781.16
2023-01-23T15:06:23.090Z,98748.38
2023-01-23T15:08:50.579Z,98759.41
2023-01-23T15:11:25.247Z,98770.53
2023-01-23T15:13:55.372Z,98770.53
2023-01-23T15:16:29.071Z,98763.69
2023-01-23T15:19:02.685Z,98780.78
2023-01-23T15:21:39.109Z,98774.25
2023-01-23T15:24:09.639Z,98779.03
2023-01-23T15:26:43.241Z,98789.53
2023-01-23T15:29:09.840Z,98785.53
2023-01-23T15:31:39.276Z,98781.69
2023-01-23T15:34:18.909Z,98783.59
2023-01-23T15:37:10.520Z,98765.25
2023-01-23T15:39:45.979Z,98783.06
2023-01-23T15:42:12.483Z,98780.84
2023-01-23T15:44:39.684Z,98775.44
2023-01-23T15:47:10.762Z,98750.53
2023-01-23T15:49:40.237Z,98771.81
2023-01-23T15:52:23.731Z,98773.59
2023-01-23T15:54:53.202Z,98772.34
2023-01-23T15:57:20.455Z,98778.22
2023-01-23T15:59:46.969Z,98753.66
2023-01-23T16:02:30.206Z,98781.69
2023-01-23T16:04:57.422Z,98779.47
2023-01-23T16:07:36.413Z,98778.31
2023-01-23T16:10:07.802Z,98787.56
2023-01-23T16:12:38.713Z,98786.91
2023-01-23T16:15:15.000Z,98743.59
2023-01-23T16:17:41.503Z,98769.53
2023-01-23T16:20:20.288Z,98776.47
2023-01-23T16:22:50.734Z,98772.66
2023-01-23T16:25:41.866Z,98774.47
2023-01-23T16:28:20.692Z,98766.16
2023-01-23T16:30:48.197Z,98755.13
2023-01-23T16:33:15.184Z,98763.91
2023-01-23T16:35:42.021Z,98796.13
2023-01-23T16:38:20.468Z,98797.50
2023-01-23T16:40:47.056Z,98775.31
2023-01-23T16:43:13.591Z,98785.31
2023-01-23T16:45:40.095Z,98758.03
2023-01-23T16:48:15.390Z,98789.69
2023-01-23T16:50:52.409Z,98757.75
2023-01-23T16:53:31.727Z,98787.50
2023-01-23T16:56:00.461Z,98804.50
2023-01-23T16:58:30.825Z,98805.88
2023-01-23T17:01:15.467Z,98804.56
2023-01-23T17:03:42.331Z,98808.25
2023-01-23T17:06:14.072Z,98810.69
2023-01-23T17:08:40.583Z,98813.47
2023-01-23T17:11:10.768Z,98799.59
2023-01-23T17:13:39.892Z,98826.94
2023-01-23T17:16:25.408Z,98802.25
2023-01-23T17:18:54.732Z,98801.09
2023-01-23T17:21:23.858Z,98811.00
2023-01-23T17:23:50.620Z,98785.13
2023-01-23T17:26:18.353Z,98823.47
2023-01-23T17:28:45.223Z,98829.00
2023-01-23T17:31:20.599Z,98823.31
2023-01-23T17:33:47.679Z,98824.53
2023-01-23T17:36:14.256Z,98784.31
2023-01-23T17:38:43.454Z,98803.03
2023-01-23T17:41:15.307Z,98815.66
2023-01-23T17:43:44.198Z,98811.09
2023-01-23T17:46:23.344Z,98811.16
2023-01-23T17:48:50.641Z,98797.34
2023-01-23T17:51:19.737Z,98824.69
2023-01-23T17:53:49.036Z,98794.19
2023-01-23T17:56:16.548Z,98829.91
2023-01-23T17:58:43.577Z,98813.53
2023-01-23T18:01:25.947Z,98832.63
2023-01-23T18:03:53.216Z,98838.81
2023-01-23T18:06:20.092Z,98804.69
2023-01-23T18:08:47.308Z,98808.75
2023-01-23T18:11:33.329Z,98810.50
2023-01-23T18:14:34.464Z,98840.47
2023-01-23T18:17:01.501Z,98845.22
2023-01-23T18:19:28.511Z,98836.47
2023-01-23T18:21:57.226Z,98828.84
2023-01-23T18:24:39.180Z,98846.34
2023-01-23T18:27:25.526Z,98851.56
2023-01-23T18:30:29.117Z,98850.38
2023-01-23T18:33:01.468Z,98850.28
2023-01-23T18:35:59.992Z,98850.06
2023-01-23T18:39:01.140Z,98852.97
2023-01-23T18:41:30.017Z,98853.34
2023-01-23T18:44:33.019Z,98853.41
2023-01-23T18:47:09.300Z,98853.34
2023-01-23T18:49:37.219Z,98861.81
2023-01-23T18:52:14.966Z,98855.94
2023-01-23T18:55:14.020Z,98854.91
2023-01-23T18:58:02.030Z,98832.72
2023-01-23T19:00:44.757Z,98841.13
2023-01-23T19:03:16.968Z,98830.69
2023-01-23T19:05:45.310Z,98846.16
2023-01-23T19:08:30.828Z,98830.59
2023-01-23T19:11:05.723Z,98831.97
2023-01-23T19:13:44.900Z,98835.50
2023-01-23T19:16:28.268Z,98845.16
2023-01-23T19:19:15.283Z,98855.66
2023-01-23T19:21:43.188Z,98830.84
2023-01-23T19:24:11.155Z,98848.97
2023-01-23T19:26:42.422Z,98844.28
2023-01-23T19:29:21.486Z,98838.16
2023-01-23T19:32:03.113Z,98857.94
2023-01-23T19:34:31.241Z,98859.53
2023-01-23T19:36:57.763Z,98852.84
2023-01-23T19:39:24.373Z,98839.28
2023-01-23T19:41:51.962Z,98846.72
2023-01-23T19:44:22.283Z,98848.59
2023-01-23T19:46:48.893Z,98847.09
2023-01-23T19:49:15.618Z,98857.28
2023-01-23T19:51:42.568Z,98842.59
2023-01-23T19:54:14.851Z,98831.88
2023-01-23T19:56:42.423Z,98850.53
2023-01-23T19:59:12.302Z,98865.44
2023-01-23T20:01:45.658Z,98868.38
2023-01-23T20:04:15.983Z,98877.59
2023-01-23T20:06:45.256Z,98868.00
2023-01-23T20:09:14.606Z,98873.31
2023-01-23T20:11:45.326Z,98877.06
2023-01-23T20:14:12.271Z,98851.03
2023-01-23T20:16:42.969Z,98851.88
2023-01-23T20:19:14.338Z,98873.31
2023-01-23T20:21:40.901Z,98859.78
2023-01-23T20:24:10.266Z,98871.72
2023-01-23T20:26:39.854Z,98876.69
2023-01-23T20:29:08.421Z,98888.22
2023-01-23T20:31:35.845Z,98874.34
2023-01-23T20:34:02.657Z,98872.03
2023-01-23T20:36:29.449Z,98854.97
2023-01-23T20:38:56.474Z,98860.97
2023-01-23T20:41:23.307Z,98872.56
2023-01-23T20:43:49.951Z,98874.94
2023-01-23T20:46:19.078Z,98877.59
2023-01-23T20:48:45.954Z,98881.81
2023-01-23T20:51:14.744Z,98881.06
2023-01-23T20:53:41.314Z,98875.34
2023-01-23T20:56:13.405Z,98883.50
2023-01-23T20:59:03.125Z,98883.00
2023-01-23T21:01:51.464Z,98878.41
2023-01-23T21:04:18.377Z,98870.88
2023-01-23T21:06:44.983Z,98858.94
2023-01-23T21:09:11.547Z,98865.22
2023-01-23T21:11:38.086Z,98874.94
2023-01-23T21:14:04.803Z,98877.72
2023-01-23T21:16:31.484Z,98857.09
2023-01-23T21:18:58.083Z,98870.03
2023-01-23T21:21:24.623Z,98875.84
2023-01-23T21:23:51.462Z,98863.47
2023-01-23T21:26:22.318Z,98877.19
2023-01-23T21:28:50.408Z,98862.88
2023-01-23T21:31:22.710Z,98860.38
2023-01-23T21:33:49.998Z,98855.59
2023-01-23T21:36:19.833Z,98871.66
2023-01-23T21:38:46.953Z,98864.16
2023-01-23T21:41:14.108Z,98875.00
2023-01-23T21:43:43.199Z,98866.81
2023-01-23T21:46:09.672Z,98856.31
2023-01-23T21:48:36.612Z,98870.03
2023-01-23T21:51:17.525Z,98878.47
2023-01-23T21:53:46.774Z,98856.91
2023-01-23T21:56:20.733Z,98856.19
2023-01-23T21:58:55.328Z,98860.78
2023-01-23T22:01:40.192Z,98876.59
2023-01-23T22:04:11.019Z,98877.59
2023-01-23T22:06:39.553Z,98881.81
2023-01-23T22:09:07.246Z,98871.91
2023-01-23T22:11:33.866Z,98861.47
2023-01-23T22:14:03.885Z,98867.47
2023-01-23T22:16:47.531Z,98873.88
2023-01-23T22:19:17.379Z,98866.00
2023-01-23T22:21:48.447Z,98871.72
2023-01-23T22:24:18.971Z,98880.41
2023-01-23T22:26:46.125Z,98879.97
2023-01-23T22:29:16.907Z,98871.94
2023-01-23T22:31:46.502Z,98877.25
2023-01-23T22:34:15.700Z,98875.97
2023-01-23T22:36:42.729Z,98868.69
2023-01-23T22:39:14.826Z,98872.88
2023-01-23T22:41:41.602Z,98860.72
2023-01-23T22:44:08.069Z,98881.00
2023-01-23T22:46:34.600Z,98879.13
2023-01-23T22:49:01.355Z,98884.78
2023-01-23T22:51:28.725Z,98889.88
2023-01-23T22:53:56.567Z,98876.03
2023-01-23T22:56:24.519Z,98878.28
2023-01-23T22:58:52.981Z,98878.75
2023-01-23T23:01:20.470Z,98872.31
2023-01-23T23:03:47.521Z,98878.28
2023-01-23T23:06:17.590Z,98902.06
2023-01-23T23:08:48.388Z,98905.63
2023-01-23T23:11:23.481Z,98903.28
2023-01-23T23:13:50.854Z,98902.44
2023-01-23T23:16:27.123Z,98899.38
2023-01-23T23:18:55.722Z,98898.72
2023-01-23T23:21:25.255Z,98905.19
2023-01-23T23:23:56.586Z,98901.34
2023-01-23T23:26:23.622Z,98906.13
2023-01-23T23:28:50.243Z,98914.69
2023-01-23T23:31:20.508Z,98912.84
2023-01-23T23:33:50.194Z,98918.56
2023-01-23T23:36:20.233Z,98915.16
2023-01-23T23:38:48.994Z,98909.69
2023-01-23T23:41:19.168Z,98914.25
2023-01-23T23:43:45.953Z,98915.63
2023-01-23T23:46:13.759Z,98912.72
2023-01-23T23:48:40.879Z,98912.34
2023-01-23T23:51:11.202Z,98909.00
2023-01-23T23:53:37.815Z,98910.00
2023-01-23T23:56:06.014Z,98906.72
2023-01-23T23:58:35.676Z,98905.34
